Time;durP1;ratioP1;P1;durP2;ratioP2;P2;SDS_P1;SDS_P2;PMS_P1;PMS_P2;Temp;Humidity;BMP_temperature;BMP_pressure;BME280_temperature;BME280_humidity;BME280_pressure;Samples;Min_cycle;Max_cycle;Signal;HPM_P1;HPM_P2
2022/01/13 00:00:50;;;;;;;27.52;8.05;;;-0.50;99.90;;;;;;5005258;28;20030;-81
2022/01/13 00:03:15;;;;;;;20.42;7.13;;;-0.50;99.90;;;;;;5013848;28;20026;-81
2022/01/13 00:05:41;;;;;;;28.45;8.07;;;-0.50;99.90;;;;;;5011344;28;20038;-81
2022/01/13 00:08:07;;;;;;;25.90;7.68;;;-0.40;99.90;;;;;;5002215;28;20041;-81
2022/01/13 00:10:33;;;;;;;23.77;7.88;;;-0.40;99.90;;;;;;4999179;28;20056;-81
2022/01/13 00:13:05;;;;;;;21.65;7.38;;;-0.40;99.90;;;;;;5016237;28;20034;-81
2022/01/13 00:16:01;;;;;;;29.77;8.30;;;-0.40;99.90;;;;;;5005814;28;20349;-81
2022/01/13 00:18:39;;;;;;;26.75;7.97;;;-0.30;99.90;;;;;;5016232;28;20096;-81
2022/01/13 00:23:46;;;;;;;28.02;7.65;;;-0.30;99.90;;;;;;5017659;28;20033;-80
2022/01/13 00:26:18;;;;;;;30.25;8.73;;;-0.30;99.90;;;;;;4983483;28;20030;-81
2022/01/13 00:28:49;;;;;;;26.95;8.68;;;-0.30;99.90;;;;;;5015970;28;20034;-81
2022/01/13 00:31:19;;;;;;;21.33;7.78;;;-0.30;99.90;;;;;;5004185;28;20199;-81
2022/01/13 00:33:46;;;;;;;32.23;7.77;;;-0.20;99.90;;;;;;4999504;28;20062;-81
2022/01/13 00:36:13;;;;;;;29.35;7.65;;;-0.20;99.90;;;;;;4981739;28;20355;-80
2022/01/13 00:38:38;;;;;;;27.67;8.65;;;-0.20;99.90;;;;;;5009672;28;20465;-81
2022/01/13 00:41:04;;;;;;;37.65;8.32;;;-0.20;99.90;;;;;;5007761;28;20042;-80
2022/01/13 00:43:31;;;;;;;23.90;7.10;;;-0.20;99.90;;;;;;5015858;28;20064;-81
2022/01/13 00:45:57;;;;;;;44.33;9.75;;;-0.20;99.90;;;;;;4989639;28;20062;-80
2022/01/13 00:48:22;;;;;;;25.70;7.45;;;-0.20;99.90;;;;;;4988313;28;20034;-81
2022/01/13 00:50:48;;;;;;;22.02;8.13;;;-0.20;99.90;;;;;;4987926;28;20029;-81
2022/01/13 00:53:14;;;;;;;22.77;6.85;;;-0.20;99.90;;;;;;5015957;28;20041;-81
2022/01/13 00:55:58;;;;;;;32.45;8.80;;;-0.10;99.90;;;;;;5008233;28;20049;-81
2022/01/13 00:58:28;;;;;;;23.08;7.07;;;-0.10;99.90;;;;;;5022053;28;20037;-81
2022/01/13 01:00:54;;;;;;;21.70;7.43;;;-0.10;99.90;;;;;;5004786;28;20117;-81
2022/01/13 01:03:21;;;;;;;25.48;8.65;;;-0.10;99.90;;;;;;5006132;28;20034;-81
2022/01/13 01:05:50;;;;;;;22.02;7.60;;;-0.10;99.90;;;;;;4998780;28;20030;-81
2022/01/13 01:08:16;;;;;;;23.35;8.10;;;-0.10;99.90;;;;;;4999421;28;20034;-81
2022/01/13 01:10:46;;;;;;;30.20;10.15;;;-0.10;99.90;;;;;;5022836;28;20065;-81
2022/01/13 01:13:14;;;;;;;27.23;8.53;;;-0.10;99.90;;;;;;5018999;28;20030;-81
2022/01/13 01:15:44;;;;;;;29.58;9.23;;;-0.10;99.90;;;;;;5004108;28;20045;-81
2022/01/13 01:18:29;;;;;;;32.28;9.18;;;-0.10;99.90;;;;;;4993021;28;20551;-81
2022/01/13 01:28:59;;;;;;;29.00;9.00;;;0.00;99.90;;;;;;4997630;28;20065;-83
2022/01/13 01:31:29;;;;;;;34.05;9.65;;;0.00;99.90;;;;;;5011322;28;20030;-82
2022/01/13 01:34:43;;;;;;;40.20;9.10;;;0.00;99.90;;;;;;5013182;28;20033;-82
2022/01/13 01:36:48;;;;;;;28.23;9.35;;;0.00;99.90;;;;;;5025985;28;20034;-80
2022/01/13 01:39:14;;;;;;;28.27;9.25;;;0.00;99.90;;;;;;5004675;28;20061;-80
2022/01/13 01:41:45;;;;;;;23.17;9.55;;;0.00;99.90;;;;;;5013211;28;20080;-81
2022/01/13 01:44:14;;;;;;;29.05;8.73;;;0.00;99.90;;;;;;5006487;28;20037;-82
2022/01/13 01:46:43;;;;;;;38.45;10.68;;;0.00;99.90;;;;;;4987259;28;20035;-82
2022/01/13 01:49:16;;;;;;;28.70;10.00;;;0.00;99.90;;;;;;5005061;28;20044;-80
2022/01/13 01:51:42;;;;;;;34.08;10.77;;;0.00;99.90;;;;;;4995670;28;20029;-80
2022/01/13 01:54:08;;;;;;;26.58;8.98;;;0.00;99.90;;;;;;5013772;28;20143;-81
2022/01/13 01:56:35;;;;;;;36.47;10.45;;;0.10;99.90;;;;;;5014253;28;20037;-80
2022/01/13 01:59:03;;;;;;;27.52;9.95;;;0.00;99.90;;;;;;5013924;28;20116;-81
2022/01/13 02:01:32;;;;;;;25.85;10.52;;;0.10;99.90;;;;;;5014066;28;20184;-82
2022/01/13 02:04:01;;;;;;;38.28;11.25;;;0.10;99.90;;;;;;5024853;28;20030;-82
2022/01/13 02:06:28;;;;;;;34.30;9.57;;;0.10;99.90;;;;;;5011894;28;20035;-82
2022/01/13 02:08:53;;;;;;;23.30;8.88;;;0.10;99.90;;;;;;4994570;28;20058;-82
2022/01/13 02:11:20;;;;;;;33.60;10.90;;;0.10;99.90;;;;;;4978542;28;20038;-82
2022/01/13 02:13:50;;;;;;;28.77;10.30;;;0.10;99.90;;;;;;5000660;28;20415;-83
2022/01/13 02:19:01;;;;;;;29.20;10.65;;;0.10;99.90;;;;;;5015833;28;20070;-82
2022/01/13 02:21:27;;;;;;;25.95;9.38;;;0.10;99.90;;;;;;5012302;28;20532;-82
2022/01/13 02:23:54;;;;;;;28.27;9.98;;;0.10;99.90;;;;;;5001786;28;20417;-82
2022/01/13 02:26:24;;;;;;;26.55;10.15;;;0.10;99.90;;;;;;5006147;28;20117;-82
2022/01/13 02:28:51;;;;;;;27.63;10.02;;;0.10;99.90;;;;;;4994551;28;20088;-82
2022/01/13 02:31:21;;;;;;;25.33;8.73;;;0.10;99.90;;;;;;5012145;28;20034;-82
2022/01/13 02:33:47;;;;;;;22.23;9.55;;;0.10;99.90;;;;;;5012402;28;20040;-83
2022/01/13 02:36:16;;;;;;;35.85;11.25;;;0.20;99.90;;;;;;5012958;28;20111;-82
2022/01/13 02:38:50;;;;;;;32.25;10.25;;;0.20;99.90;;;;;;4993561;28;20034;-82
2022/01/13 02:41:16;;;;;;;32.67;11.05;;;0.20;99.90;;;;;;5008065;28;20034;-82
2022/01/13 02:43:47;;;;;;;32.67;10.32;;;0.10;99.90;;;;;;5010244;28;20034;-82
2022/01/13 02:49:09;;;;;;;;;;;0.10;99.90;;;;;;5022906;28;20040;-82
2022/01/13 02:51:36;;;;;;;26.45;9.18;;;0.10;99.90;;;;;;5012570;28;19905;-82
2022/01/13 02:54:03;;;;;;;26.48;9.23;;;0.10;99.90;;;;;;5012271;28;20084;-82
2022/01/13 02:56:30;;;;;;;22.70;8.07;;;0.10;99.90;;;;;;4996653;28;20374;-82
2022/01/13 02:58:56;;;;;;;18.23;8.05;;;0.10;99.90;;;;;;5010370;28;20497;-82
2022/01/13 03:01:23;;;;;;;25.80;9.18;;;0.20;99.90;;;;;;4998379;28;20048;-82
2022/01/13 03:03:49;;;;;;;29.77;9.50;;;0.10;99.90;;;;;;4995449;28;20304;-82
2022/01/13 03:06:16;;;;;;;25.17;9.43;;;0.20;99.90;;;;;;5028880;28;20018;-84
2022/01/13 03:08:45;;;;;;;24.88;9.48;;;0.20;99.90;;;;;;5027292;28;20027;-82
2022/01/13 03:11:11;;;;;;;24.33;9.35;;;0.20;99.90;;;;;;5004925;28;20030;-83
2022/01/13 03:13:40;;;;;;;30.77;10.30;;;0.20;99.90;;;;;;5000517;28;20041;-82
2022/01/13 03:16:11;;;;;;;23.75;9.57;;;0.20;99.90;;;;;;4992986;28;20027;-82
2022/01/13 03:18:38;;;;;;;26.75;10.52;;;0.20;99.90;;;;;;4996053;28;20038;-82
2022/01/13 03:21:08;;;;;;;21.70;9.07;;;0.20;99.90;;;;;;5009123;28;20026;-82
2022/01/13 03:23:36;;;;;;;25.90;10.00;;;0.20;99.90;;;;;;4997406;28;20044;-82
2022/01/13 03:26:02;;;;;;;31.85;11.00;;;0.20;99.90;;;;;;5000234;28;20626;-82
2022/01/13 03:28:38;;;;;;;38.05;11.18;;;0.20;99.90;;;;;;5030043;28;20029;-82
2022/01/13 03:31:04;;;;;;;29.25;10.63;;;0.20;99.90;;;;;;5016811;28;20038;-82
2022/01/13 03:33:30;;;;;;;33.15;9.50;;;0.20;99.90;;;;;;5020664;28;20026;-82
2022/01/13 03:35:59;;;;;;;30.23;10.57;;;0.20;99.90;;;;;;4993196;28;20045;-82
2022/01/13 03:38:26;;;;;;;25.80;9.27;;;0.10;99.90;;;;;;4998423;28;20437;-82
2022/01/13 03:40:51;;;;;;;28.15;9.75;;;0.10;99.90;;;;;;5011057;28;20105;-82
2022/01/13 03:43:17;;;;;;;27.67;9.18;;;0.10;99.90;;;;;;4992777;28;20609;-82
2022/01/13 03:45:45;;;;;;;35.47;10.63;;;0.20;99.90;;;;;;5010603;28;20036;-82
2022/01/13 03:48:13;;;;;;;26.95;9.70;;;0.20;99.90;;;;;;5012396;28;20024;-82
2022/01/13 03:50:42;;;;;;;30.40;10.50;;;0.20;99.90;;;;;;4997996;28;20153;-82
2022/01/13 03:53:17;;;;;;;32.30;10.25;;;0.20;99.90;;;;;;4996166;28;20038;-82
2022/01/13 03:56:10;;;;;;;33.03;9.85;;;0.20;99.90;;;;;;5032143;28;20381;-82
2022/01/13 03:59:20;;;;;;;27.33;9.23;;;0.20;99.90;;;;;;5026291;28;20086;-82
2022/01/13 04:02:09;;;;;;;27.40;8.93;;;0.20;99.90;;;;;;5026004;28;20476;-83
2022/01/13 04:04:43;;;;;;;30.10;10.52;;;0.20;99.90;;;;;;5000085;28;20092;-83
2022/01/13 04:07:19;;;;;;;39.50;10.50;;;0.20;99.90;;;;;;5023739;28;20541;-82
2022/01/13 04:09:45;;;;;;;37.90;11.80;;;0.20;99.90;;;;;;5015201;28;20018;-82
2022/01/13 04:12:13;;;;;;;31.35;10.93;;;0.20;99.90;;;;;;5031651;28;20029;-82
2022/01/13 04:14:47;;;;;;;33.15;10.40;;;0.20;99.90;;;;;;5014580;28;20037;-82
2022/01/13 04:17:15;;;;;;;27.20;10.32;;;0.20;99.90;;;;;;5031153;28;20066;-82
2022/01/13 04:19:42;;;;;;;30.95;9.55;;;0.20;99.90;;;;;;4992173;28;20037;-82
2022/01/13 04:22:09;;;;;;;38.70;11.68;;;0.20;99.90;;;;;;5026128;23;20153;-87
2022/01/13 04:24:43;;;;;;;39.00;10.38;;;0.20;99.90;;;;;;5008135;28;20034;-87
2022/01/13 04:27:10;;;;;;;33.15;11.07;;;0.20;99.90;;;;;;5005228;28;20113;-86
2022/01/13 04:29:39;;;;;;;33.75;10.85;;;0.20;99.90;;;;;;4990198;28;20089;-86
2022/01/13 04:32:05;;;;;;;32.57;9.77;;;0.20;99.90;;;;;;4996808;28;20590;-86
2022/01/13 04:34:32;;;;;;;39.60;11.70;;;0.20;99.90;;;;;;4972475;28;20049;-86
2022/01/13 04:36:59;;;;;;;34.30;11.30;;;0.20;99.90;;;;;;4988416;28;20037;-87
2022/01/13 04:39:25;;;;;;;29.42;10.38;;;0.20;99.90;;;;;;5001579;28;20040;-86
2022/01/13 04:41:53;;;;;;;39.20;11.55;;;0.20;99.90;;;;;;5005308;28;20085;-86
2022/01/13 04:44:20;;;;;;;51.67;12.38;;;0.20;99.90;;;;;;4971959;28;20077;-85
2022/01/13 04:46:48;;;;;;;34.28;11.10;;;0.20;99.90;;;;;;5012619;28;20029;-86
2022/01/13 04:49:14;;;;;;;49.17;12.65;;;0.20;99.90;;;;;;5013759;28;20030;-86
2022/01/13 04:51:41;;;;;;;37.25;10.65;;;0.10;99.90;;;;;;4999411;28;20627;-86
2022/01/13 04:54:07;;;;;;;35.60;10.02;;;0.10;99.90;;;;;;5010928;28;20490;-86
2022/01/13 04:59:07;;;;;;;38.22;11.32;;;0.10;99.90;;;;;;5002501;28;20060;-87
2022/01/13 05:01:33;;;;;;;31.77;10.15;;;0.10;99.90;;;;;;5007464;28;20033;-87
2022/01/13 05:03:58;;;;;;;43.03;12.13;;;0.10;99.90;;;;;;4986082;28;20149;-86
2022/01/13 05:06:24;;;;;;;39.42;10.90;;;0.10;99.90;;;;;;5000165;28;20129;-87
2022/01/13 05:08:50;;;;;;;45.97;12.15;;;0.10;99.90;;;;;;4981239;28;20031;-86
2022/01/13 05:11:17;;;;;;;49.90;12.50;;;0.10;99.90;;;;;;4999557;28;20060;-86
2022/01/13 05:13:44;;;;;;;40.75;10.85;;;0.10;99.90;;;;;;5011240;28;20041;-86
2022/01/13 05:16:19;;;;;;;39.25;12.27;;;0.10;99.90;;;;;;5013553;28;20058;-86
2022/01/13 05:19:08;;;;;;;52.70;12.80;;;0.00;99.90;;;;;;4973383;28;20038;-87
2022/01/13 05:22:15;;;;;;;57.40;13.38;;;0.00;99.90;;;;;;4979029;28;20038;-87
2022/01/13 05:24:31;;;;;;;38.50;10.57;;;0.00;99.90;;;;;;4992863;28;20124;-86
2022/01/13 05:26:57;;;;;;;41.60;11.73;;;0.00;99.90;;;;;;4980050;28;20121;-86
2022/01/13 05:29:23;;;;;;;46.13;11.57;;;0.10;99.90;;;;;;5010833;28;20065;-86
2022/01/13 05:31:50;;;;;;;37.92;11.27;;;0.10;99.90;;;;;;4994581;28;20041;-87
2022/01/13 05:34:16;;;;;;;50.92;12.23;;;0.00;99.90;;;;;;5010503;28;20418;-87
2022/01/13 05:36:45;;;;;;;50.78;11.57;;;0.10;99.90;;;;;;4994743;28;20041;-87
2022/01/13 05:39:11;;;;;;;58.67;12.02;;;0.10;99.90;;;;;;5009383;28;20080;-87
2022/01/13 05:41:41;;;;;;;62.67;12.93;;;0.10;99.90;;;;;;4995515;28;20050;-87
2022/01/13 05:44:07;;;;;;;33.97;9.73;;;0.00;99.90;;;;;;4986615;28;20026;-86
2022/01/13 05:46:32;;;;;;;37.47;10.13;;;0.00;99.90;;;;;;4988661;28;20398;-87
2022/01/13 05:48:58;;;;;;;41.60;11.15;;;0.00;99.90;;;;;;4994231;28;20080;-86
2022/01/13 05:51:25;;;;;;;40.00;11.07;;;0.10;99.90;;;;;;5010826;28;20030;-87
2022/01/13 05:53:50;;;;;;;51.58;11.65;;;0.10;99.90;;;;;;5010641;28;20082;-85
2022/01/13 05:56:16;;;;;;;51.45;12.75;;;0.10;99.90;;;;;;4998401;28;20054;-87
2022/01/13 05:58:44;;;;;;;50.22;9.35;;;0.10;99.90;;;;;;4990015;28;20376;-87
2022/01/13 06:01:10;;;;;;;56.05;13.23;;;0.10;99.90;;;;;;5003790;28;20032;-87
2022/01/13 06:03:36;;;;;;;67.78;11.77;;;0.10;99.90;;;;;;4976332;28;20473;-86
2022/01/13 06:06:01;;;;;;;34.53;9.63;;;0.00;99.90;;;;;;5008320;28;20398;-87
2022/01/13 06:08:30;;;;;;;43.30;10.68;;;0.00;99.90;;;;;;5007368;28;20042;-87
2022/01/13 06:10:56;;;;;;;43.90;10.27;;;0.10;99.90;;;;;;4975059;28;20061;-86
2022/01/13 06:13:21;;;;;;;36.60;10.25;;;0.10;99.90;;;;;;4987716;28;20390;-87
2022/01/13 06:15:47;;;;;;;39.40;10.75;;;0.10;99.90;;;;;;4994122;28;20069;-87
2022/01/13 06:18:14;;;;;;;62.65;12.60;;;0.10;99.90;;;;;;4993696;28;20034;-87
2022/01/13 06:20:40;;;;;;;55.65;12.73;;;0.10;99.90;;;;;;5006838;28;20038;-85
2022/01/13 06:23:07;;;;;;;45.15;11.57;;;0.10;99.90;;;;;;4980060;28;20037;-87
2022/01/13 06:25:34;;;;;;;67.80;12.95;;;0.10;99.90;;;;;;5007589;28;20032;-87
2022/01/13 06:27:59;;;;;;;57.65;12.73;;;0.10;99.90;;;;;;4990215;28;20084;-87
2022/01/13 06:30:25;;;;;;;48.88;12.70;;;0.00;99.90;;;;;;4974223;28;20060;-87
2022/01/13 06:32:51;;;;;;;53.15;13.25;;;0.00;99.90;;;;;;4974458;28;20045;-87
2022/01/13 06:35:16;;;;;;;43.47;12.13;;;0.10;99.90;;;;;;4976586;28;20486;-87
2022/01/13 06:37:42;;;;;;;67.40;12.93;;;0.00;99.90;;;;;;4993810;28;20072;-87
2022/01/13 06:40:11;;;;;;;64.78;12.70;;;0.00;99.90;;;;;;4993906;28;20120;-87
2022/01/13 06:42:37;;;;;;;78.50;12.43;;;0.10;99.90;;;;;;4975566;28;20033;-87
2022/01/13 06:45:04;;;;;;;72.25;13.35;;;0.00;99.90;;;;;;4993052;28;20081;-87
2022/01/13 06:47:30;;;;;;;43.78;12.75;;;0.00;99.90;;;;;;5004475;28;20022;-87
2022/01/13 06:49:55;;;;;;;46.15;12.18;;;0.00;99.90;;;;;;5004195;28;20084;-86
2022/01/13 06:52:21;;;;;;;67.18;12.32;;;0.00;99.90;;;;;;4959060;28;20044;-87
2022/01/13 06:54:46;;;;;;;53.28;13.68;;;0.00;99.90;;;;;;4993072;28;20042;-88
2022/01/13 06:57:12;;;;;;;45.75;11.32;;;0.00;99.90;;;;;;5009192;28;20076;-87
2022/01/13 06:59:42;;;;;;;164.50;15.50;;;0.00;99.90;;;;;;4990516;28;20591;-87
2022/01/13 07:02:08;;;;;;;54.85;12.35;;;0.00;99.90;;;;;;4989937;28;20118;-87
2022/01/13 07:04:34;;;;;;;46.33;12.10;;;-0.10;99.90;;;;;;4990455;28;20137;-86
2022/01/13 07:06:59;;;;;;;48.63;10.98;;;0.00;99.90;;;;;;4974272;28;20170;-87
2022/01/13 07:09:25;;;;;;;115.25;13.30;;;0.00;99.90;;;;;;4989616;28;20041;-87
2022/01/13 07:11:51;;;;;;;101.82;14.00;;;0.00;99.90;;;;;;4987786;28;20089;-86
2022/01/13 07:14:17;;;;;;;62.05;12.75;;;0.00;99.90;;;;;;4992997;28;20599;-87
2022/01/13 07:16:44;;;;;;;51.20;12.02;;;0.00;99.90;;;;;;4976337;28;20486;-86
2022/01/13 07:19:11;;;;;;;49.90;12.13;;;0.00;99.90;;;;;;4989943;28;20054;-86
2022/01/13 07:21:39;;;;;;;73.32;13.38;;;0.00;99.90;;;;;;5008001;28;20517;-86
2022/01/13 07:24:05;;;;;;;55.40;14.02;;;-0.10;99.90;;;;;;4984426;28;20141;-86
2022/01/13 07:26:31;;;;;;;48.95;12.68;;;-0.10;99.90;;;;;;4989678;28;20117;-87
2022/01/13 07:28:57;;;;;;;53.15;12.32;;;0.00;99.90;;;;;;5003239;28;20109;-86
2022/01/13 07:31:22;;;;;;;51.55;12.82;;;0.00;99.90;;;;;;4962233;28;20088;-86
2022/01/13 07:33:48;;;;;;;44.78;11.82;;;0.00;99.90;;;;;;4962746;28;20092;-87
2022/01/13 07:36:14;;;;;;;83.32;13.38;;;0.00;99.90;;;;;;4989797;28;20501;-86
2022/01/13 07:38:40;;;;;;;163.02;17.85;;;0.00;99.90;;;;;;4995134;28;20503;-87
2022/01/13 07:41:06;;;;;;;62.17;14.52;;;0.00;99.90;;;;;;4992495;28;20125;-86
2022/01/13 07:43:32;;;;;;;92.75;13.48;;;0.00;99.90;;;;;;5000101;28;20496;-86
2022/01/13 07:45:58;;;;;;;141.95;14.23;;;0.00;99.90;;;;;;4990588;28;20154;-87
2022/01/13 07:48:24;;;;;;;63.33;13.50;;;0.00;99.90;;;;;;5006260;28;20068;-87
2022/01/13 07:50:51;;;;;;;127.78;15.00;;;0.00;99.90;;;;;;5008971;28;20024;-87
2022/01/13 07:53:17;;;;;;;178.57;14.77;;;0.00;99.90;;;;;;4979688;28;20475;-87
2022/01/13 07:55:43;;;;;;;43.20;11.57;;;0.00;99.90;;;;;;4972822;28;20042;-87
2022/01/13 07:58:09;;;;;;;53.13;12.73;;;0.00;99.90;;;;;;4988862;28;20034;-87
2022/01/13 08:00:35;;;;;;;49.10;13.48;;;0.00;99.90;;;;;;4991336;28;20035;-87
2022/01/13 08:03:01;;;;;;;104.75;13.07;;;0.00;99.90;;;;;;5007820;28;20111;-87
2022/01/13 08:05:26;;;;;;;50.00;13.02;;;0.10;99.90;;;;;;4990274;28;20613;-86
2022/01/13 08:07:52;;;;;;;44.53;10.73;;;0.10;99.90;;;;;;4974554;28;20041;-87
2022/01/13 08:10:18;;;;;;;48.13;12.23;;;0.10;99.90;;;;;;4983327;28;20062;-86
2022/01/13 08:12:43;;;;;;;86.05;13.68;;;0.10;99.90;;;;;;4972765;28;20041;-87
2022/01/13 08:15:13;;;;;;;39.78;10.88;;;0.10;99.90;;;;;;4989046;28;20041;-87
2022/01/13 08:20:28;;;;;;;38.42;11.05;;;0.10;99.90;;;;;;4976202;28;20049;-87
2022/01/13 08:22:53;;;;;;;48.83;11.35;;;0.20;99.90;;;;;;5006983;28;20034;-87
2022/01/13 08:25:22;;;;;;;40.78;11.98;;;0.20;99.90;;;;;;5003769;28;20029;-87
2022/01/13 08:27:48;;;;;;;46.47;13.20;;;0.30;99.90;;;;;;4972931;28;20402;-87
2022/01/13 08:30:14;;;;;;;44.83;11.90;;;0.30;99.90;;;;;;4957119;28;20030;-87
2022/01/13 08:32:39;;;;;;;97.03;12.50;;;0.30;99.90;;;;;;4989328;28;20035;-87
2022/01/13 08:35:06;;;;;;;77.00;11.30;;;0.30;99.90;;;;;;5000822;28;20368;-87
2022/01/13 08:37:33;;;;;;;69.25;11.77;;;0.30;99.90;;;;;;5000739;28;20035;-87
2022/01/13 08:40:04;;;;;;;39.42;10.30;;;0.30;99.90;;;;;;4992432;28;20036;-87
2022/01/13 08:42:30;;;;;;;48.78;12.00;;;0.30;99.90;;;;;;4993420;28;20041;-87
2022/01/13 08:44:55;;;;;;;73.68;10.50;;;0.30;99.90;;;;;;4993441;28;20023;-87
2022/01/13 08:47:21;;;;;;;40.45;10.90;;;0.30;99.90;;;;;;4991845;28;20117;-87
2022/01/13 08:49:47;;;;;;;63.88;11.50;;;0.40;99.90;;;;;;4959967;28;20061;-87
2022/01/13 08:52:12;;;;;;;46.40;11.10;;;0.40;99.90;;;;;;4991443;28;20033;-87
2022/01/13 08:54:38;;;;;;;46.92;10.40;;;0.40;99.90;;;;;;4991908;28;20117;-86
2022/01/13 08:57:06;;;;;;;49.88;12.20;;;0.40;99.90;;;;;;4973683;28;20041;-86
2022/01/13 08:59:32;;;;;;;56.15;11.82;;;0.40;99.90;;;;;;4986226;28;20375;-87
2022/01/13 09:01:57;;;;;;;114.75;14.10;;;0.50;99.90;;;;;;4974474;28;20049;-87
2022/01/13 09:04:23;;;;;;;91.45;12.85;;;0.50;99.90;;;;;;5009878;28;20030;-86
2022/01/13 09:06:49;;;;;;;98.50;11.63;;;0.50;99.90;;;;;;5010023;28;20025;-87
2022/01/13 09:09:14;;;;;;;42.13;10.73;;;0.40;99.90;;;;;;4976767;28;20038;-87
2022/01/13 09:11:41;;;;;;;47.75;9.25;;;0.40;99.90;;;;;;4998302;28;20088;-87
2022/01/13 09:14:07;;;;;;;54.75;12.25;;;0.40;99.90;;;;;;4991778;28;20483;-87
2022/01/13 09:16:41;;;;;;;36.08;10.95;;;0.40;99.90;;;;;;4991410;28;20064;-87
2022/01/13 09:19:12;;;;;;;59.97;11.23;;;0.50;99.90;;;;;;4991922;28;20039;-87
2022/01/13 09:21:42;;;;;;;;;;;0.50;99.90;;;;;;4976433;28;20054;-86
2022/01/13 09:24:10;;;;;;;47.60;10.07;;;0.50;99.90;;;;;;4991556;28;19968;-87
2022/01/13 09:26:36;;;;;;;155.45;14.00;;;0.50;99.90;;;;;;4974841;28;20269;-86
2022/01/13 09:29:02;;;;;;;44.28;9.98;;;0.60;99.90;;;;;;4975691;28;20022;-87
2022/01/13 09:31:28;;;;;;;40.22;10.50;;;0.60;99.90;;;;;;4991577;28;20030;-87
2022/01/13 09:33:54;;;;;;;26.05;9.98;;;0.60;99.90;;;;;;4958993;28;20050;-87
2022/01/13 09:36:20;;;;;;;39.47;12.10;;;0.70;99.90;;;;;;4974912;28;20041;-87
2022/01/13 09:38:46;;;;;;;38.80;10.82;;;0.70;99.90;;;;;;4975442;28;20328;-86
2022/01/13 09:41:13;;;;;;;50.55;12.27;;;0.70;99.90;;;;;;4991420;28;20034;-87
2022/01/13 09:43:43;;;;;;;36.80;10.43;;;0.80;99.90;;;;;;4991282;28;20614;-87
2022/01/13 09:46:10;;;;;;;71.10;11.65;;;0.80;99.90;;;;;;4991214;28;20146;-87
2022/01/13 09:48:39;;;;;;;43.55;10.68;;;0.80;99.90;;;;;;4990979;28;20403;-87
2022/01/13 09:51:05;;;;;;;43.85;11.10;;;0.80;99.90;;;;;;4974914;28;20065;-87
2022/01/13 09:53:30;;;;;;;46.33;11.75;;;0.80;99.90;;;;;;5004635;28;20046;-86
2022/01/13 09:55:56;;;;;;;36.75;11.60;;;0.90;99.90;;;;;;4991697;28;20069;-87
2022/01/13 09:58:22;;;;;;;41.55;10.70;;;0.90;99.90;;;;;;5009739;28;20072;-87
2022/01/13 10:00:47;;;;;;;46.78;11.45;;;0.90;99.90;;;;;;5009414;28;20030;-87
2022/01/13 10:03:16;;;;;;;50.33;10.55;;;1.00;99.90;;;;;;5002363;28;20462;-86
2022/01/13 10:05:53;;;;;;;40.78;11.40;;;1.00;99.90;;;;;;4978041;28;20066;-87
2022/01/13 10:08:42;;;;;;;31.05;10.32;;;1.00;99.90;;;;;;4995329;28;20050;-87
2022/01/13 10:11:37;;;;;;;81.30;11.30;;;1.00;99.90;;;;;;4982938;28;20586;-87
2022/01/13 10:14:17;;;;;;;35.00;11.68;;;1.10;99.90;;;;;;4994030;28;20034;-87
2022/01/13 10:16:48;;;;;;;53.70;12.55;;;1.10;99.90;;;;;;5005067;28;20093;-87
2022/01/13 10:19:36;;;;;;;53.45;11.63;;;1.10;99.90;;;;;;4980527;28;20578;-87
2022/01/13 10:22:09;;;;;;;49.95;11.05;;;1.10;99.90;;;;;;4998898;28;20038;-87
2022/01/13 10:24:40;;;;;;;39.83;11.27;;;1.10;99.90;;;;;;5020083;22;20092;-86
2022/01/13 10:27:12;;;;;;;37.13;9.65;;;1.20;99.90;;;;;;5010046;28;20030;-85
2022/01/13 10:30:04;;;;;;;50.85;10.18;;;1.30;99.90;;;;;;4994178;28;20447;-85
2022/01/13 10:32:36;;;;;;;76.88;10.27;;;1.40;99.90;;;;;;5003229;28;20028;-85
2022/01/13 10:35:05;;;;;;;33.15;9.77;;;1.40;99.90;;;;;;5007107;28;20042;-86
2022/01/13 10:37:36;;;;;;;37.55;10.30;;;1.40;99.90;;;;;;4996013;28;20022;-86
2022/01/13 10:40:14;;;;;;;28.95;10.02;;;1.40;99.90;;;;;;4994345;28;20026;-85
2022/01/13 10:45:26;;;;;;;75.78;11.95;;;1.50;99.90;;;;;;4992895;28;20022;-85
2022/01/13 10:48:24;;;;;;;33.17;10.43;;;1.60;99.90;;;;;;4981745;28;20057;-85
2022/01/13 10:50:54;;;;;;;41.53;12.25;;;1.60;99.90;;;;;;4969839;28;20065;-85
2022/01/13 10:53:37;;;;;;;51.38;15.63;;;1.60;99.90;;;;;;4993095;28;20511;-85
2022/01/13 10:56:09;;;;;;;42.97;12.85;;;1.70;99.90;;;;;;4974573;28;20071;-85
2022/01/13 10:58:52;;;;;;;36.15;11.95;;;1.80;99.90;;;;;;4995425;28;20398;-85
2022/01/13 11:01:18;;;;;;;38.10;11.88;;;1.90;99.90;;;;;;4972551;28;20023;-85
2022/01/13 11:03:46;;;;;;;35.22;11.68;;;2.00;99.90;;;;;;4974923;28;20057;-85
2022/01/13 11:06:13;;;;;;;30.15;10.57;;;2.10;99.90;;;;;;4995120;28;20026;-85
2022/01/13 11:08:47;;;;;;;32.30;11.93;;;2.10;99.90;;;;;;4995175;28;20057;-85
2022/01/13 11:11:20;;;;;;;36.42;13.05;;;2.20;99.90;;;;;;5001613;28;20030;-85
2022/01/13 11:14:21;;;;;;;39.28;12.40;;;2.20;99.90;;;;;;4990616;28;20054;-86
2022/01/13 11:16:47;;;;;;;43.40;13.48;;;2.30;99.90;;;;;;4971469;28;20061;-83
2022/01/13 11:19:15;;;;;;;44.95;14.80;;;2.40;99.90;;;;;;5003948;28;20471;-83
2022/01/13 11:21:41;;;;;;;48.65;14.02;;;2.50;99.90;;;;;;4970307;28;20048;-83
2022/01/13 11:24:10;;;;;;;49.92;15.95;;;2.60;99.90;;;;;;4985574;28;20045;-82
2022/01/13 11:26:36;;;;;;;49.40;14.30;;;2.60;99.90;;;;;;5008595;28;20030;-82
2022/01/13 11:29:04;;;;;;;37.92;13.32;;;2.60;99.90;;;;;;4996778;28;20062;-82
2022/01/13 11:31:29;;;;;;;42.92;14.02;;;2.60;99.90;;;;;;4990793;28;20022;-82
2022/01/13 11:33:56;;;;;;;40.78;13.60;;;2.70;99.90;;;;;;4986374;28;20056;-82
2022/01/13 11:36:22;;;;;;;36.40;12.82;;;2.80;99.90;;;;;;4985903;28;20271;-82
2022/01/13 11:39:07;;;;;;;39.97;13.13;;;2.90;99.90;;;;;;5001288;28;20038;-83
2022/01/13 11:41:54;;;;;;;40.65;12.20;;;2.90;99.90;;;;;;5022011;28;20329;-85
2022/01/13 11:44:22;;;;;;;33.80;12.80;;;2.90;99.90;;;;;;4984378;28;20272;-85
2022/01/13 11:46:49;;;;;;;36.97;12.88;;;2.80;99.90;;;;;;5014295;28;20117;-85
2022/01/13 11:49:20;;;;;;;39.67;12.48;;;2.80;99.90;;;;;;4997388;28;20030;-85
2022/01/13 11:52:01;;;;;;;37.78;13.43;;;2.80;99.90;;;;;;5003912;28;20026;-85
2022/01/13 11:54:31;;;;;;;;;;;2.80;99.90;;;;;;4991113;28;20511;-87
2022/01/13 11:57:27;;;;;;;41.83;13.47;;;2.90;99.90;;;;;;4992846;28;19913;-83
2022/01/13 11:59:55;;;;;;;38.60;12.77;;;3.00;99.90;;;;;;4999450;28;20772;-84
2022/01/13 12:02:26;;;;;;;42.38;14.45;;;3.10;99.90;;;;;;5013838;28;20072;-84
2022/01/13 12:05:05;;;;;;;37.58;12.77;;;3.10;99.90;;;;;;5012746;28;20581;-83
2022/01/13 12:07:39;;;;;;;36.60;12.93;;;3.20;99.90;;;;;;4989204;28;20507;-84
2022/01/13 12:10:09;;;;;;;36.75;12.50;;;3.30;99.90;;;;;;4996612;28;20053;-84
2022/01/13 12:12:35;;;;;;;31.52;11.07;;;3.30;99.90;;;;;;4996218;28;20033;-83
2022/01/13 12:15:21;;;;;;;32.47;13.05;;;3.30;99.90;;;;;;4996769;28;20088;-84
2022/01/13 12:18:01;;;;;;;35.97;12.93;;;3.40;99.90;;;;;;4971092;28;20045;-84
2022/01/13 12:20:42;;;;;;;28.73;11.02;;;3.40;99.90;;;;;;4976281;28;20023;-83
2022/01/13 12:23:43;;;;;;;31.05;11.50;;;3.40;99.90;;;;;;4965999;28;20033;-83
2022/01/13 12:26:49;;;;;;;29.65;12.07;;;3.30;99.90;;;;;;4975493;28;20589;-84
2022/01/13 12:29:23;;;;;;;29.90;10.90;;;3.10;99.90;;;;;;5007857;28;20034;-84
2022/01/13 12:31:59;;;;;;;30.75;11.82;;;3.10;99.90;;;;;;4993602;28;20022;-83
2022/01/13 12:34:28;;;;;;;27.17;10.93;;;3.00;99.90;;;;;;4992055;28;20035;-83
2022/01/13 12:36:55;;;;;;;30.00;11.23;;;3.00;99.90;;;;;;4994586;28;20026;-83
2022/01/13 12:39:21;;;;;;;34.35;12.43;;;3.00;99.90;;;;;;4995807;28;20499;-83
2022/01/13 12:42:00;;;;;;;28.58;11.02;;;3.00;99.90;;;;;;5012268;28;20041;-84
2022/01/13 12:47:11;;;;;;;28.42;10.05;;;2.80;99.90;;;;;;5014306;28;20064;-84
2022/01/13 12:49:40;;;;;;;26.80;11.77;;;2.80;99.90;;;;;;5014190;28;20475;-83
2022/01/13 12:52:07;;;;;;;25.65;11.30;;;2.70;99.90;;;;;;4996346;28;20033;-84
2022/01/13 12:54:34;;;;;;;31.95;11.48;;;2.60;99.90;;;;;;4996293;28;20070;-83
2022/01/13 12:57:04;;;;;;;34.42;12.35;;;2.50;99.90;;;;;;4995408;28;20030;-83
2022/01/13 12:59:32;;;;;;;31.48;11.60;;;2.40;99.90;;;;;;4994176;28;20034;-83
2022/01/13 13:01:59;;;;;;;40.67;13.85;;;2.40;99.90;;;;;;4994657;28;20038;-83
2022/01/13 13:04:25;;;;;;;36.97;12.98;;;2.40;99.90;;;;;;5012810;28;20056;-84
2022/01/13 13:06:52;;;;;;;35.10;13.05;;;2.40;99.90;;;;;;4977640;28;20048;-86
2022/01/13 13:09:22;;;;;;;36.00;12.63;;;2.40;99.90;;;;;;5012089;28;20034;-86
2022/01/13 13:11:50;;;;;;;32.28;13.10;;;2.40;99.90;;;;;;5031162;28;20040;-86
2022/01/13 13:14:29;;;;;;;39.55;13.90;;;2.40;99.90;;;;;;5031167;28;20025;-86
2022/01/13 13:16:55;;;;;;;43.53;13.32;;;2.40;99.90;;;;;;5002321;28;20101;-87